Time;durP1;ratioP1;P1;durP2;ratioP2;P2;SDS_P1;SDS_P2;PMS_P1;PMS_P2;Temp;Humidity;BMP_temperature;BMP_pressure;BME280_temperature;BME280_humidity;BME280_pressure;Samples;Min_cycle;Max_cycle;Signal;HPM_P1;HPM_P2
2023/02/14 00:01:09;;;;;;;7.28;5.78;;;0.80;99.90;;;;;;4986132;28;20050;-83
2023/02/14 00:03:35;;;;;;;14.23;7.80;;;0.60;99.90;;;;;;4983218;28;20084;-82
2023/02/14 00:06:09;;;;;;;11.82;6.95;;;0.60;99.90;;;;;;4990392;28;20030;-83
2023/02/14 00:08:35;;;;;;;11.52;7.55;;;0.60;99.90;;;;;;4987625;28;20400;-82
2023/02/14 00:11:01;;;;;;;17.10;8.82;;;0.60;99.90;;;;;;4985534;28;20890;-82
2023/02/14 00:13:27;;;;;;;18.90;10.35;;;0.50;99.90;;;;;;4991365;28;20286;-82
2023/02/14 00:15:54;;;;;;;22.42;10.30;;;0.60;99.90;;;;;;4982241;28;20026;-82
2023/02/14 00:18:20;;;;;;;19.80;10.77;;;0.70;99.90;;;;;;4977430;28;20106;-82
2023/02/14 00:20:45;;;;;;;18.17;9.85;;;0.70;99.90;;;;;;4984345;28;20057;-82
2023/02/14 00:23:11;;;;;;;18.00;9.43;;;0.70;99.90;;;;;;4986770;28;20038;-82
2023/02/14 00:25:36;;;;;;;18.20;10.57;;;0.70;99.90;;;;;;4978126;28;20031;-82
2023/02/14 00:28:02;;;;;;;18.85;9.23;;;0.70;99.90;;;;;;4977521;28;20034;-83
2023/02/14 00:30:28;;;;;;;19.08;10.13;;;0.80;99.90;;;;;;4984249;28;20035;-83
2023/02/14 00:32:53;;;;;;;26.23;11.38;;;0.90;99.90;;;;;;4979787;28;20110;-83
2023/02/14 00:35:19;;;;;;;21.17;10.90;;;0.90;99.90;;;;;;4985410;28;20121;-83
2023/02/14 00:38:16;;;;;;;20.98;9.68;;;0.80;99.90;;;;;;4985067;28;20034;-83
2023/02/14 00:40:42;;;;;;;21.85;8.55;;;0.90;99.90;;;;;;4990819;28;20038;-83
2023/02/14 00:43:07;;;;;;;13.68;7.90;;;0.70;99.90;;;;;;4986880;28;20023;-83
2023/02/14 00:45:33;;;;;;;20.17;10.05;;;0.60;99.90;;;;;;4985098;28;20034;-83
2023/02/14 00:47:58;;;;;;;17.52;9.63;;;0.70;99.90;;;;;;5018587;28;21585;-83
2023/02/14 00:50:24;;;;;;;13.68;8.13;;;0.70;99.90;;;;;;4989349;28;20874;-82
2023/02/14 00:52:49;;;;;;;14.10;8.70;;;0.70;99.90;;;;;;4985071;28;20170;-82
2023/02/14 00:55:15;;;;;;;16.77;9.05;;;0.70;99.90;;;;;;4985660;28;20102;-83
2023/02/14 00:57:41;;;;;;;6.82;5.53;;;0.60;99.90;;;;;;4973541;28;20043;-82
2023/02/14 01:00:07;;;;;;;18.33;10.38;;;0.50;99.90;;;;;;4982199;28;20034;-83
2023/02/14 01:02:32;;;;;;;19.10;10.27;;;0.60;99.90;;;;;;4992907;28;20035;-83
2023/02/14 01:04:59;;;;;;;19.10;9.73;;;0.60;99.90;;;;;;4984112;28;20038;-82
2023/02/14 01:07:24;;;;;;;19.05;10.63;;;0.60;99.90;;;;;;4978621;28;20141;-84
2023/02/14 01:09:50;;;;;;;13.98;7.47;;;0.70;99.90;;;;;;4983345;28;20054;-83
2023/02/14 01:12:15;;;;;;;17.13;9.82;;;0.60;99.90;;;;;;4979597;28;20118;-83
2023/02/14 01:14:41;;;;;;;25.02;11.45;;;0.70;99.90;;;;;;4985476;28;20038;-83
2023/02/14 01:17:06;;;;;;;24.65;12.40;;;0.70;99.90;;;;;;4985083;28;20034;-83
2023/02/14 01:19:32;;;;;;;27.77;12.18;;;0.70;99.90;;;;;;4988424;28;20057;-83
2023/02/14 01:21:58;;;;;;;52.10;19.02;;;0.70;99.90;;;;;;4980448;28;20041;-82
2023/02/14 01:24:25;;;;;;;15.75;8.80;;;0.70;99.90;;;;;;4969947;28;20105;-82
2023/02/14 01:26:50;;;;;;;18.70;9.93;;;0.60;99.90;;;;;;4984044;28;20027;-83
2023/02/14 01:29:16;;;;;;;15.73;8.00;;;0.60;99.90;;;;;;4984034;28;20494;-82
2023/02/14 01:31:42;;;;;;;57.90;24.83;;;0.60;99.90;;;;;;4981918;28;20108;-82
2023/02/14 01:34:07;;;;;;;35.80;16.42;;;0.60;99.90;;;;;;4975334;28;20027;-82
2023/02/14 01:36:37;;;;;;;19.17;10.95;;;0.60;99.90;;;;;;4978269;28;20027;-83
2023/02/14 01:39:06;;;;;;;7.55;6.20;;;0.60;99.90;;;;;;4971246;28;20031;-83
2023/02/14 01:41:54;;;;;;;12.55;7.97;;;0.60;99.90;;;;;;4983445;28;20054;-82
2023/02/14 01:44:31;;;;;;;15.30;9.07;;;0.50;99.90;;;;;;4988520;28;20046;-82
2023/02/14 01:47:01;;;;;;;13.20;9.13;;;0.60;99.90;;;;;;4984440;28;20042;-82
2023/02/14 01:49:32;;;;;;;14.27;9.02;;;0.60;99.90;;;;;;4982168;28;20046;-83
2023/02/14 01:52:05;;;;;;;14.65;8.02;;;0.70;99.90;;;;;;4985500;28;20030;-83
2023/02/14 01:54:36;;;;;;;12.88;7.20;;;0.70;99.90;;;;;;4979241;28;20103;-82
2023/02/14 01:57:07;;;;;;;14.88;7.72;;;0.70;99.90;;;;;;4983077;28;20094;-82
2023/02/14 01:59:37;;;;;;;22.00;8.32;;;0.70;99.90;;;;;;4986351;28;20034;-82
2023/02/14 02:02:04;;;;;;;11.02;7.00;;;0.70;99.90;;;;;;4981361;28;20769;-82
2023/02/14 02:04:34;;;;;;;10.82;6.55;;;0.60;99.90;;;;;;4988981;28;20516;-82
2023/02/14 02:07:10;;;;;;;6.68;5.47;;;0.50;99.90;;;;;;4983239;28;20045;-82
2023/02/14 02:09:59;;;;;;;15.40;8.93;;;0.50;99.90;;;;;;4987382;28;20026;-82
2023/02/14 02:12:24;;;;;;;;;;;0.50;99.90;;;;;;4980260;28;20084;-83
2023/02/14 02:14:53;;;;;;;2.65;2.45;;;0.50;99.90;;;;;;4987002;28;19976;-82
2023/02/14 02:17:40;;;;;;;21.55;8.65;;;0.40;99.90;;;;;;4982903;28;20030;-82
2023/02/14 02:20:40;;;;;;;13.77;7.47;;;0.30;99.90;;;;;;4983401;28;20117;-82
2023/02/14 02:23:25;;;;;;;10.25;5.95;;;0.40;99.90;;;;;;4982045;28;20069;-82
2023/02/14 02:26:15;;;;;;;3.92;3.60;;;0.20;99.90;;;;;;4984157;28;20061;-82
2023/02/14 02:29:07;;;;;;;8.43;5.65;;;0.20;99.90;;;;;;4972468;28;20058;-82
2023/02/14 02:32:28;;;;;;;28.35;8.57;;;0.10;99.90;;;;;;4995609;28;20038;-82
2023/02/14 02:35:12;;;;;;;22.40;9.15;;;0.10;99.90;;;;;;4971370;28;20061;-82
2023/02/14 02:38:06;;;;;;;22.13;10.70;;;0.20;99.90;;;;;;4987300;28;20090;-82
2023/02/14 02:40:46;;;;;;;13.80;7.93;;;0.10;99.90;;;;;;4986419;28;20057;-82
2023/02/14 02:43:32;;;;;;;32.03;9.38;;;0.20;99.90;;;;;;4981277;28;20043;-82
2023/02/14 02:56:44;;;;;;;13.50;7.72;;;0.40;99.90;;;;;;4982564;28;19945;-82
2023/02/14 02:58:18;;;;;;;13.45;7.65;;;0.40;99.90;;;;;;4992543;28;20502;-82
2023/02/14 03:00:45;;;;;;;66.18;13.35;;;0.50;99.90;;;;;;5015088;28;20055;-82
2023/02/14 03:06:01;;;;;;;46.70;11.27;;;0.30;99.90;;;;;;4993041;28;20114;-82
2023/02/14 03:08:27;;;;;;;58.58;11.43;;;0.20;99.90;;;;;;4987112;28;20084;-82
2023/02/14 03:10:53;;;;;;;19.63;10.68;;;0.10;99.90;;;;;;5008181;28;20129;-82
2023/02/14 03:13:28;;;;;;;9.77;5.95;;;0.10;99.90;;;;;;4992780;28;20097;-82
2023/02/14 03:16:14;;;;;;;18.08;8.93;;;0.20;99.90;;;;;;4981758;28;20045;-82
2023/02/14 03:18:53;;;;;;;11.00;8.15;;;0.20;99.90;;;;;;4988170;28;20043;-82
2023/02/14 03:21:51;;;;;;;29.90;8.27;;;0.30;99.90;;;;;;4989426;28;20483;-82
2023/02/14 03:24:41;;;;;;;16.90;9.02;;;0.40;99.90;;;;;;4983364;28;20025;-82
2023/02/14 03:27:18;;;;;;;6.80;4.53;;;0.30;99.90;;;;;;4983161;28;20045;-83
2023/02/14 03:30:13;;;;;;;14.13;7.97;;;0.20;99.90;;;;;;4983636;28;20031;-83
2023/02/14 03:33:02;;;;;;;15.00;6.60;;;0.30;99.90;;;;;;5004227;28;20032;-82
2023/02/14 03:35:39;;;;;;;14.38;7.70;;;0.40;99.90;;;;;;4984343;28;20027;-82
2023/02/14 03:38:26;;;;;;;21.75;10.00;;;0.40;99.90;;;;;;5019579;28;20382;-82
2023/02/14 03:41:03;;;;;;;15.35;7.65;;;0.40;99.90;;;;;;4986732;28;20632;-82
2023/02/14 03:44:01;;;;;;;23.75;6.07;;;0.40;99.90;;;;;;4983153;28;20082;-82
2023/02/14 03:46:29;;;;;;;12.38;6.57;;;0.20;99.90;;;;;;4984210;28;20031;-82
2023/02/14 03:48:58;;;;;;;17.02;8.27;;;0.20;99.90;;;;;;4986822;28;20035;-82
2023/02/14 03:51:26;;;;;;;13.60;8.48;;;0.10;99.90;;;;;;4985947;28;20042;-83
2023/02/14 03:53:56;;;;;;;11.27;7.70;;;0.20;99.90;;;;;;4987705;28;20034;-82
2023/02/14 03:56:44;;;;;;;23.23;7.90;;;0.10;99.90;;;;;;5002485;28;20043;-82
2023/02/14 03:59:21;;;;;;;13.63;8.02;;;0.20;99.90;;;;;;4981373;28;20030;-82
2023/02/14 04:02:02;;;;;;;16.90;8.15;;;0.10;99.90;;;;;;4984367;28;20046;-82
2023/02/14 04:04:32;;;;;;;22.17;10.38;;;0.20;99.90;;;;;;4985875;28;20443;-82
2023/02/14 04:06:57;;;;;;;11.70;7.10;;;0.20;99.90;;;;;;4989257;28;20042;-82
2023/02/14 04:09:23;;;;;;;13.00;7.53;;;0.20;99.90;;;;;;4989009;28;20450;-82
2023/02/14 04:11:49;;;;;;;11.50;6.90;;;0.20;99.90;;;;;;4983204;28;20058;-82
2023/02/14 04:14:15;;;;;;;12.75;7.40;;;0.30;99.90;;;;;;4981510;28;20023;-82
2023/02/14 04:19:28;;;;;;;14.50;7.60;;;0.30;99.90;;;;;;4991316;28;20121;-82
2023/02/14 04:21:54;;;;;;;11.43;7.25;;;0.30;99.90;;;;;;4990278;28;20471;-82
2023/02/14 04:24:20;;;;;;;23.17;8.07;;;0.30;99.90;;;;;;4975550;28;20202;-81
2023/02/14 04:27:11;;;;;;;17.13;8.27;;;0.10;99.90;;;;;;4977011;28;20038;-82
2023/02/14 04:29:48;;;;;;;13.77;7.43;;;0.10;99.90;;;;;;4987515;28;20062;-81
2023/02/14 04:32:20;;;;;;;15.75;7.25;;;0.10;99.90;;;;;;4991968;28;20042;-82
2023/02/14 04:34:46;;;;;;;15.07;7.32;;;0.10;99.90;;;;;;4982350;28;20042;-82
2023/02/14 04:37:13;;;;;;;11.18;6.45;;;0.10;99.90;;;;;;4986426;28;20038;-82
2023/02/14 04:39:39;;;;;;;14.30;8.68;;;0.10;99.90;;;;;;4972486;28;20069;-82
2023/02/14 04:42:05;;;;;;;9.65;6.72;;;0.10;99.90;;;;;;4987572;28;20034;-82
2023/02/14 04:44:32;;;;;;;11.77;6.18;;;0.20;99.90;;;;;;4989030;28;20066;-83
2023/02/14 04:46:58;;;;;;;13.68;6.05;;;0.10;99.90;;;;;;5009548;28;20041;-82
2023/02/14 04:49:24;;;;;;;27.30;7.05;;;0.20;99.90;;;;;;4988326;28;20097;-84
2023/02/14 04:51:50;;;;;;;11.95;6.63;;;0.10;99.90;;;;;;4991373;28;20039;-82
2023/02/14 04:54:15;;;;;;;12.95;6.32;;;0.10;99.90;;;;;;4983956;28;20154;-82
2023/02/14 04:56:41;;;;;;;11.77;7.20;;;0.20;99.90;;;;;;4974187;28;20522;-82
2023/02/14 04:59:07;;;;;;;10.25;6.85;;;0.20;99.90;;;;;;4975283;28;20545;-82
2023/02/14 05:01:33;;;;;;;15.88;7.60;;;0.20;99.90;;;;;;4978271;28;20050;-82
2023/02/14 05:03:58;;;;;;;8.68;5.97;;;0.20;99.90;;;;;;4983797;28;20026;-82
2023/02/14 05:06:24;;;;;;;14.05;8.48;;;0.20;99.90;;;;;;4984696;28;20120;-82
2023/02/14 05:08:50;;;;;;;16.42;7.63;;;0.20;99.90;;;;;;4966313;28;20085;-83
2023/02/14 05:11:15;;;;;;;12.38;8.07;;;0.20;99.90;;;;;;4979856;28;20042;-84
2023/02/14 05:13:41;;;;;;;7.10;5.03;;;0.00;99.90;;;;;;4993526;28;20034;-84
2023/02/14 05:16:06;;;;;;;17.98;7.93;;;0.00;99.90;;;;;;4989705;28;20026;-84
2023/02/14 05:18:32;;;;;;;14.68;7.53;;;0.00;99.90;;;;;;4995489;28;20689;-84
2023/02/14 05:20:57;;;;;;;13.52;6.97;;;0.10;99.90;;;;;;4988933;28;20038;-84
2023/02/14 05:23:23;;;;;;;28.65;9.80;;;0.10;99.90;;;;;;4992286;28;20038;-84
2023/02/14 05:25:50;;;;;;;22.33;9.38;;;0.10;99.90;;;;;;4990387;28;20037;-82
2023/02/14 05:28:17;;;;;;;12.80;7.78;;;0.00;99.90;;;;;;4981461;28;20086;-82
2023/02/14 05:30:43;;;;;;;13.95;7.95;;;0.00;99.90;;;;;;4975827;28;20023;-82
2023/02/14 05:33:08;;;;;;;8.05;5.35;;;0.00;99.90;;;;;;4985446;28;20053;-82
2023/02/14 05:35:34;;;;;;;24.45;13.40;;;0.00;99.90;;;;;;4994766;28;20045;-82
2023/02/14 05:38:00;;;;;;;81.15;39.42;;;0.00;99.90;;;;;;4989153;28;20030;-82
2023/02/14 05:40:26;;;;;;;18.23;10.15;;;-0.10;99.90;;;;;;4985689;28;20069;-82
2023/02/14 05:42:52;;;;;;;50.42;25.55;;;-0.20;99.90;;;;;;4985440;28;20034;-82
2023/02/14 05:45:18;;;;;;;22.10;13.13;;;-0.10;99.90;;;;;;4998930;28;20030;-82
2023/02/14 05:47:46;;;;;;;15.38;9.77;;;-0.10;99.90;;;;;;5004718;28;20478;-82
2023/02/14 05:50:11;;;;;;;27.80;12.55;;;-0.10;99.90;;;;;;4976946;28;20035;-82
2023/02/14 05:52:37;;;;;;;12.48;7.68;;;-0.20;99.90;;;;;;4977591;28;20035;-82
2023/02/14 05:55:03;;;;;;;12.80;8.15;;;-0.20;99.90;;;;;;4975045;28;20030;-82
2023/02/14 05:57:29;;;;;;;16.52;9.18;;;-0.10;99.90;;;;;;4973809;28;20082;-82
2023/02/14 05:59:55;;;;;;;21.77;12.35;;;0.00;99.90;;;;;;4971001;28;20098;-81
2023/02/14 06:02:21;;;;;;;20.58;9.52;;;0.00;99.90;;;;;;4976891;28;20058;-82
2023/02/14 06:04:46;;;;;;;16.80;9.70;;;-0.10;99.90;;;;;;4982663;28;20026;-83
2023/02/14 06:07:12;;;;;;;22.70;12.50;;;-0.20;99.90;;;;;;4985862;28;20053;-83
2023/02/14 06:09:37;;;;;;;15.98;9.25;;;-0.20;99.90;;;;;;4975993;28;20042;-84
2023/02/14 06:12:03;;;;;;;17.88;9.07;;;-0.20;99.90;;;;;;4977796;28;20042;-82
2023/02/14 06:14:29;;;;;;;15.25;8.13;;;-0.20;99.90;;;;;;4985258;28;20542;-82
2023/02/14 06:16:54;;;;;;;16.25;9.20;;;-0.20;99.90;;;;;;4992176;28;20031;-82
2023/02/14 06:19:20;;;;;;;10.43;6.88;;;-0.20;99.90;;;;;;4987919;28;20046;-82
2023/02/14 06:21:45;;;;;;;3.33;2.63;;;-0.20;99.90;;;;;;4987527;28;20062;-82
2023/02/14 06:24:11;;;;;;;12.13;7.50;;;-0.30;99.90;;;;;;4982198;28;20033;-82
2023/02/14 06:26:37;;;;;;;25.90;7.75;;;-0.30;99.90;;;;;;4993608;28;20031;-81
2023/02/14 06:29:03;;;;;;;12.88;7.80;;;-0.30;99.90;;;;;;4987099;28;20026;-83
2023/02/14 06:31:28;;;;;;;14.02;7.25;;;-0.20;99.90;;;;;;4980689;28;20442;-82
2023/02/14 06:33:57;;;;;;;13.98;8.13;;;-0.10;99.90;;;;;;4989866;28;20030;-82
2023/02/14 06:36:24;;;;;;;13.13;7.32;;;-0.10;99.90;;;;;;4985002;28;20031;-82
2023/02/14 06:38:50;;;;;;;13.40;8.18;;;-0.10;99.90;;;;;;4973335;28;20038;-81
2023/02/14 06:41:16;;;;;;;51.00;19.40;;;0.00;99.90;;;;;;4970668;28;20049;-83
2023/02/14 06:43:43;;;;;;;77.95;31.27;;;0.00;99.90;;;;;;4971642;28;20061;-85
2023/02/14 06:46:09;;;;;;;81.20;35.00;;;0.00;99.90;;;;;;4975983;28;20110;-82
2023/02/14 06:48:34;;;;;;;24.80;11.43;;;-0.10;99.90;;;;;;4979471;28;20137;-82
2023/02/14 06:51:00;;;;;;;17.05;9.07;;;-0.20;99.90;;;;;;4981661;28;20065;-82
2023/02/14 06:53:26;;;;;;;32.92;11.07;;;-0.30;99.90;;;;;;4985992;28;20110;-82
2023/02/14 06:55:52;;;;;;;15.25;8.90;;;-0.30;99.90;;;;;;4968729;28;20059;-82
2023/02/14 06:58:17;;;;;;;16.38;10.40;;;-0.20;99.90;;;;;;4971127;28;20058;-83
2023/02/14 07:00:43;;;;;;;18.88;11.52;;;-0.10;99.90;;;;;;4962172;28;20054;-86
2023/02/14 07:03:08;;;;;;;16.80;9.32;;;-0.10;99.90;;;;;;4977263;28;20023;-86
2023/02/14 07:05:34;;;;;;;16.23;8.10;;;-0.10;99.90;;;;;;4981901;28;20036;-86
2023/02/14 07:08:00;;;;;;;14.77;8.55;;;-0.20;99.90;;;;;;4987989;28;20789;-81
2023/02/14 07:10:26;;;;;;;13.07;7.53;;;-0.10;99.90;;;;;;4990756;28;20050;-83
2023/02/14 07:12:51;;;;;;;26.52;7.07;;;-0.10;99.90;;;;;;4985791;28;20035;-83
2023/02/14 07:15:17;;;;;;;12.50;7.70;;;-0.10;99.90;;;;;;4977142;28;20027;-83
2023/02/14 07:17:43;;;;;;;11.45;6.72;;;-0.10;99.90;;;;;;4982437;28;20034;-83
2023/02/14 07:20:10;;;;;;;6.32;4.57;;;-0.10;99.90;;;;;;5006280;28;20041;-83
2023/02/14 07:22:36;;;;;;;15.23;3.95;;;-0.10;99.90;;;;;;4993534;28;20086;-83
2023/02/14 07:25:01;;;;;;;9.15;6.72;;;-0.30;99.90;;;;;;4989792;28;20046;-84
2023/02/14 07:27:27;;;;;;;12.13;7.50;;;-0.20;99.90;;;;;;4996093;28;20030;-79
2023/02/14 07:29:52;;;;;;;14.13;8.18;;;-0.30;99.90;;;;;;4994268;28;20049;-80
2023/02/14 07:32:18;;;;;;;9.90;6.40;;;-0.40;99.90;;;;;;4987604;28;20058;-80
2023/02/14 07:34:44;;;;;;;14.77;5.95;;;-0.20;99.90;;;;;;4986176;28;20031;-80
2023/02/14 07:37:09;;;;;;;5.10;4.65;;;-0.40;99.90;;;;;;4990020;28;20030;-80
2023/02/14 07:39:35;;;;;;;12.40;6.57;;;-0.30;99.90;;;;;;4982374;28;20042;-80
2023/02/14 07:42:00;;;;;;;8.55;5.00;;;-0.40;99.90;;;;;;4983669;28;20105;-80
2023/02/14 07:44:26;;;;;;;5.95;5.25;;;-0.40;99.90;;;;;;4987356;28;20054;-80
2023/02/14 07:46:52;;;;;;;11.57;7.82;;;-0.50;99.90;;;;;;4994224;28;20026;-79
2023/02/14 07:49:17;;;;;;;5.55;3.95;;;-0.50;99.90;;;;;;4981784;28;20042;-80
2023/02/14 07:51:43;;;;;;;10.93;6.65;;;-0.40;99.90;;;;;;4991665;28;20023;-81
2023/02/14 07:54:08;;;;;;;12.73;8.18;;;-0.30;99.90;;;;;;4996851;28;20031;-80
2023/02/14 07:56:34;;;;;;;19.55;8.27;;;-0.30;99.90;;;;;;4990129;28;20030;-82
2023/02/14 07:59:00;;;;;;;15.25;8.90;;;-0.30;99.90;;;;;;4985961;28;20035;-79
2023/02/14 08:01:25;;;;;;;16.15;8.45;;;-0.20;99.90;;;;;;4998287;28;20054;-81
2023/02/14 08:03:51;;;;;;;10.20;7.07;;;-0.20;99.90;;;;;;4994203;28;20039;-80
2023/02/14 08:06:20;;;;;;;36.03;18.42;;;-0.20;99.90;;;;;;4990530;28;20038;-80
2023/02/14 08:08:47;;;;;;;50.92;24.20;;;-0.20;99.90;;;;;;4992684;28;20034;-82
2023/02/14 08:12:57;;;;;;;19.35;9.48;;;-0.10;99.90;;;;;;4993550;28;20066;-79
2023/02/14 08:14:01;;;;;;;11.57;7.63;;;-0.20;99.90;;;;;;4995151;28;20113;-79
2023/02/14 08:16:27;;;;;;;19.20;7.82;;;-0.10;99.90;;;;;;5019558;28;20050;-80
2023/02/14 08:18:53;;;;;;;13.93;7.78;;;-0.10;99.90;;;;;;4988640;28;20039;-80
2023/02/14 08:21:18;;;;;;;11.68;7.72;;;-0.10;99.90;;;;;;4994573;28;20098;-80
2023/02/14 08:23:44;;;;;;;7.50;3.28;;;-0.10;99.90;;;;;;5007042;28;20034;-79
2023/02/14 08:26:09;;;;;;;9.57;6.60;;;-0.20;99.90;;;;;;4996749;28;20030;-81
2023/02/14 08:28:35;;;;;;;13.63;3.72;;;-0.30;99.90;;;;;;4993731;28;20073;-79
2023/02/14 08:31:02;;;;;;;57.85;9.98;;;-0.30;99.90;;;;;;4986970;28;20042;-81
2023/02/14 08:33:27;;;;;;;15.20;7.47;;;-0.50;99.90;;;;;;4998082;28;20046;-81
2023/02/14 08:35:53;;;;;;;13.57;8.57;;;-0.40;99.90;;;;;;5025287;28;20023;-81
2023/02/14 08:38:19;;;;;;;56.00;9.40;;;-0.50;99.90;;;;;;4997620;28;20116;-81
2023/02/14 08:40:44;;;;;;;31.77;5.88;;;-0.40;99.90;;;;;;4997792;28;20038;-81
2023/02/14 08:43:10;;;;;;;12.27;7.38;;;-0.40;99.90;;;;;;4992026;28;20109;-81
2023/02/14 08:45:36;;;;;;;9.82;6.93;;;-0.40;99.90;;;;;;4991817;28;20093;-81
2023/02/14 08:48:04;;;;;;;11.30;7.07;;;-0.30;99.90;;;;;;4987872;28;20062;-81
2023/02/14 08:50:30;;;;;;;14.47;9.00;;;-0.20;99.90;;;;;;4992417;28;20035;-81
2023/02/14 08:52:55;;;;;;;26.48;10.57;;;-0.20;99.90;;;;;;4992004;28;20393;-81
2023/02/14 08:55:21;;;;;;;12.57;8.07;;;-0.20;99.90;;;;;;4985357;28;20082;-81
2023/02/14 08:57:48;;;;;;;24.05;8.45;;;-0.10;99.90;;;;;;4991123;28;20049;-81
2023/02/14 09:00:14;;;;;;;13.07;7.03;;;-0.10;99.90;;;;;;4998191;28;20502;-82
2023/02/14 09:02:40;;;;;;;15.88;7.05;;;-0.10;99.90;;;;;;5020007;28;20051;-82
2023/02/14 09:05:08;;;;;;;11.85;7.47;;;0.00;99.90;;;;;;4989564;28;20026;-81
2023/02/14 09:07:33;;;;;;;15.57;8.43;;;0.00;99.90;;;;;;4994144;28;20113;-81
2023/02/14 09:09:59;;;;;;;25.25;6.75;;;0.10;99.90;;;;;;4994560;28;20329;-81
2023/02/14 09:12:25;;;;;;;8.65;6.88;;;0.00;99.90;;;;;;4988795;28;20038;-80
2023/02/14 09:14:51;;;;;;;16.05;5.55;;;-0.30;99.90;;;;;;4988309;28;20038;-81
2023/02/14 09:17:17;;;;;;;11.43;7.03;;;-0.40;99.90;;;;;;4988840;28;20027;-81
2023/02/14 09:19:43;;;;;;;14.20;7.50;;;-0.40;99.90;;;;;;4987310;28;20034;-80
2023/02/14 09:22:10;;;;;;;13.45;7.15;;;-0.30;99.90;;;;;;4985119;28;20039;-81
2023/02/14 09:24:38;;;;;;;13.75;7.85;;;-0.20;99.90;;;;;;4986468;28;20427;-80
2023/02/14 09:27:05;;;;;;;10.45;7.20;;;-0.20;99.90;;;;;;4987082;28;20026;-80
2023/02/14 09:29:31;;;;;;;12.88;7.05;;;-0.10;99.90;;;;;;4986876;28;20074;-81
2023/02/14 09:31:58;;;;;;;13.13;7.07;;;-0.10;99.90;;;;;;4989129;28;20039;-79
2023/02/14 09:37:11;;;;;;;11.98;8.10;;;0.10;99.90;;;;;;4984844;28;20405;-79
2023/02/14 09:39:37;;;;;;;12.50;7.22;;;0.20;99.90;;;;;;4994404;28;20049;-79
2023/02/14 09:42:18;;;;;;;15.10;7.40;;;0.30;99.90;;;;;;4984706;28;20035;-79
2023/02/14 09:45:02;;;;;;;49.60;11.93;;;0.30;99.90;;;;;;4988078;28;20027;-80
2023/02/14 09:48:01;;;;;;;18.77;9.43;;;0.20;99.90;;;;;;4987545;28;20044;-79
2023/02/14 09:50:39;;;;;;;21.35;9.30;;;0.10;99.90;;;;;;4960763;28;20046;-79
2023/02/14 09:53:15;;;;;;;18.60;9.35;;;0.10;99.90;;;;;;4992467;28;20022;-79
2023/02/14 09:56:19;;;;;;;17.23;7.82;;;0.00;99.90;;;;;;4990189;28;20035;-79
2023/02/14 09:59:12;;;;;;;12.00;7.03;;;0.00;99.90;;;;;;4988909;28;20038;-78
2023/02/14 10:01:58;;;;;;;11.95;7.78;;;0.10;99.90;;;;;;4985180;28;20050;-79
2023/02/14 10:04:37;;;;;;;14.25;7.30;;;0.10;99.90;;;;;;4979581;28;20023;-79
2023/02/14 10:07:26;;;;;;;14.30;7.45;;;0.30;99.90;;;;;;4988159;28;20497;-79
2023/02/14 10:10:17;;;;;;;23.40;8.85;;;0.40;99.90;;;;;;4987927;28;20150;-79
2023/02/14 10:13:06;;;;;;;14.30;8.27;;;0.40;99.90;;;;;;4977394;28;20485;-79
2023/02/14 10:15:40;;;;;;;15.98;8.57;;;0.30;99.90;;;;;;4995648;28;20042;-79
2023/02/14 10:18:19;;;;;;;12.88;7.30;;;0.50;99.90;;;;;;4990384;28;20030;-79
2023/02/14 10:20:57;;;;;;;15.77;7.97;;;0.50;99.90;;;;;;4993125;28;20042;-79
2023/02/14 10:23:29;;;;;;;13.52;7.60;;;0.60;99.90;;;;;;4984262;28;20058;-80
2023/02/14 10:26:04;;;;;;;12.77;8.35;;;0.60;99.90;;;;;;4985742;28;20050;-79
2023/02/14 10:28:38;;;;;;;14.43;8.15;;;0.70;99.90;;;;;;4982141;28;22036;-80
2023/02/14 10:31:19;;;;;;;15.75;9.07;;;0.80;99.90;;;;;;4978085;28;20058;-80
2023/02/14 10:34:25;;;;;;;16.38;8.30;;;0.70;99.90;;;;;;4989293;28;20030;-80
2023/02/14 10:36:57;;;;;;;14.50;8.68;;;0.80;99.90;;;;;;4994796;28;20036;-79
2023/02/14 10:39:41;;;;;;;12.40;7.13;;;0.90;99.90;;;;;;5004967;28;20066;-80
2023/02/14 10:42:21;;;;;;;14.15;7.13;;;1.00;99.90;;;;;;4987233;28;20070;-80
2023/02/14 10:45:09;;;;;;;1.65;1.58;;;1.00;99.90;;;;;;4975122;28;20095;-80
2023/02/14 10:47:57;;;;;;;15.65;9.10;;;0.80;99.90;;;;;;4982284;28;20082;-80
2023/02/14 10:50:23;;;;;;;;;;;0.90;99.90;;;;;;4990707;28;20123;-79
2023/02/14 10:52:58;;;;;;;19.42;9.20;;;0.80;99.90;;;;;;4991457;28;19910;-79
2023/02/14 10:55:54;;;;;;;14.63;8.93;;;0.70;99.90;;;;;;4998059;28;20049;-79
2023/02/14 10:58:22;;;;;;;20.40;9.70;;;0.80;99.90;;;;;;4981518;28;20133;-79
2023/02/14 11:01:00;;;;;;;26.80;11.30;;;0.80;99.90;;;;;;4991293;28;20066;-80
2023/02/14 11:03:27;;;;;;;16.27;9.07;;;0.90;99.90;;;;;;4993723;28;20057;-80
2023/02/14 11:05:53;;;;;;;22.15;10.80;;;0.80;99.90;;;;;;4989053;28;20033;-81
2023/02/14 11:08:31;;;;;;;16.63;9.30;;;0.80;99.90;;;;;;4985653;28;20038;-80
2023/02/14 11:11:35;;;;;;;14.57;8.87;;;0.90;99.90;;;;;;4990977;28;20058;-80
2023/02/14 11:14:23;;;;;;;19.50;9.30;;;1.00;99.90;;;;;;4987195;28;20073;-79
2023/02/14 11:16:51;;;;;;;16.38;9.02;;;1.20;99.90;;;;;;4994421;28;20037;-80
2023/02/14 11:19:33;;;;;;;18.45;10.23;;;1.30;99.90;;;;;;4980650;28;20050;-79
2023/02/14 11:22:01;;;;;;;22.45;12.85;;;1.30;99.90;;;;;;4983450;28;20825;-82
2023/02/14 11:24:30;;;;;;;19.88;10.55;;;1.30;99.90;;;;;;4987182;28;20086;-81
2023/02/14 11:26:59;;;;;;;20.33;8.70;;;1.40;99.90;;;;;;4989644;28;20100;-81
2023/02/14 11:29:35;;;;;;;16.15;9.82;;;1.50;99.90;;;;;;4992202;28;20772;-82
2023/02/14 11:32:15;;;;;;;22.60;10.52;;;1.60;99.90;;;;;;5000173;28;20049;-88
2023/02/14 11:34:47;;;;;;;22.77;11.00;;;1.70;99.90;;;;;;5002745;28;20027;-88
2023/02/14 11:37:24;;;;;;;21.80;11.07;;;1.60;99.90;;;;;;5016535;28;20030;-88
2023/02/14 11:39:51;;;;;;;21.50;11.95;;;1.50;99.90;;;;;;4984942;28;20073;-88
2023/02/14 11:42:44;;;;;;;21.77;11.18;;;1.50;99.90;;;;;;4981511;28;20056;-88
2023/02/14 11:45:36;;;;;;;17.20;10.15;;;1.30;99.90;;;;;;4990573;28;20042;-88
2023/02/14 11:48:24;;;;;;;21.27;11.35;;;1.30;99.90;;;;;;4984761;28;20062;-88
2023/02/14 11:50:59;;;;;;;;;;;1.30;99.90;;;;;;4990448;28;20054;-87
2023/02/14 11:53:27;;;;;;;24.30;12.18;;;1.30;99.90;;;;;;5006022;28;19910;-88
2023/02/14 11:55:55;;;;;;;21.25;11.73;;;1.30;99.90;;;;;;4995991;28;20031;-88
2023/02/14 11:58:32;;;;;;;16.87;9.97;;;1.30;99.90;;;;;;4980078;28;20054;-88
2023/02/14 12:00:58;;;;;;;19.50;11.30;;;1.40;99.90;;;;;;4985635;28;20046;-88
2023/02/14 12:03:26;;;;;;;20.83;12.15;;;1.60;99.90;;;;;;4988271;28;20025;-88
2023/02/14 12:05:59;;;;;;;21.98;10.55;;;1.70;99.90;;;;;;4985251;28;20031;-88
2023/02/14 12:08:28;;;;;;;19.20;11.18;;;1.90;99.90;;;;;;4979212;28;20058;-87
2023/02/14 12:11:04;;;;;;;20.95;11.15;;;1.90;99.90;;;;;;4992074;28;20064;-88
2023/02/14 12:13:31;;;;;;;23.40;11.70;;;1.90;99.90;;;;;;5008196;28;20034;-87
2023/02/14 12:15:58;;;;;;;22.35;11.02;;;2.00;99.90;;;;;;4984765;28;20030;-88
2023/02/14 12:18:51;;;;;;;20.23;11.80;;;1.80;99.90;;;;;;4997827;28;20194;-87
2023/02/14 12:21:35;;;;;;;22.15;11.05;;;1.50;99.90;;;;;;4989864;28;20038;-88
2023/02/14 12:24:19;;;;;;;19.92;11.75;;;1.70;99.90;;;;;;4991542;28;20066;-87
2023/02/14 12:27:07;;;;;;;24.05;12.75;;;2.00;99.90;;;;;;4998912;28;20086;-88
2023/02/14 12:29:38;;;;;;;23.30;12.73;;;2.10;99.90;;;;;;4984537;28;20039;-88
2023/02/14 12:32:28;;;;;;;20.23;12.20;;;2.10;99.90;;;;;;4992555;28;20050;-88
2023/02/14 12:35:15;;;;;;;17.25;10.27;;;2.00;99.90;;;;;;4981132;28;20103;-88
2023/02/14 12:38:10;;;;;;;19.05;10.73;;;1.90;99.90;;;;;;4992162;28;20046;-88
2023/02/14 12:41:06;;;;;;;25.98;12.52;;;1.80;99.90;;;;;;4982992;28;20039;-88
2023/02/14 12:43:49;;;;;;;18.40;11.35;;;1.90;99.90;;;;;;4984279;28;20065;-86
2023/02/14 12:46:26;;;;;;;17.05;9.77;;;1.90;99.90;;;;;;4988016;28;20054;-88
2023/02/14 12:49:33;;;;;;;23.10;11.35;;;1.90;99.90;;;;;;4986006;28;20049;-88
2023/02/14 12:52:05;;;;;;;21.50;11.32;;;2.10;99.90;;;;;;4975668;28;20046;-85
2023/02/14 12:55:16;;;;;;;24.00;11.65;;;2.00;99.90;;;;;;5016266;28;20066;-87
2023/02/14 12:57:55;;;;;;;18.17;10.20;;;1.90;99.90;;;;;;4965417;28;20046;-88
2023/02/14 13:00:39;;;;;;;15.27;10.30;;;2.00;99.90;;;;;;4985759;28;20089;-87
2023/02/14 13:03:15;;;;;;;20.50;10.85;;;2.20;99.90;;;;;;4999022;28;20026;-87
2023/02/14 13:05:41;;;;;;;25.77;13.48;;;2.30;99.90;;;;;;4990276;28;20037;-86
2023/02/14 13:08:28;;;;;;;20.75;11.43;;;2.50;99.90;;;;;;5017412;28;20034;-87
2023/02/14 13:11:13;;;;;;;18.10;10.65;;;2.40;99.90;;;;;;4997056;28;20050;-87
2023/02/14 13:14:02;;;;;;;25.77;13.13;;;2.60;99.90;;;;;;4995189;28;20690;-87
2023/02/14 13:16:45;;;;;;;18.58;11.10;;;2.60;99.90;;;;;;5001880;28;20031;-83
2023/02/14 13:19:32;;;;;;;18.20;11.18;;;2.50;99.90;;;;;;4983580;28;20445;-84
2023/02/14 13:22:00;;;;;;;19.00;11.38;;;2.60;99.90;;;;;;4992588;28;20042;-82
2023/02/14 13:24:38;;;;;;;21.00;10.88;;;2.60;99.90;;;;;;4992271;28;20034;-82
2023/02/14 13:27:07;;;;;;;21.73;12.20;;;2.70;99.90;;;;;;4990921;28;20062;-82